Time;durP1;ratioP1;P1;durP2;ratioP2;P2;SDS_P1;SDS_P2;PMS_P1;PMS_P2;Temp;Humidity;BMP_temperature;BMP_pressure;BME280_temperature;BME280_humidity;BME280_pressure;Samples;Min_cycle;Max_cycle;Signal;HPM_P1;HPM_P2
2022/09/11 00:00:51;;;;;;;7.45;6.75;;;15.00;99.90;;;;;;4985087;28;20258;-86
2022/09/11 00:03:18;;;;;;;7.25;6.55;;;15.00;99.90;;;;;;4985353;28;20199;-86
2022/09/11 00:05:45;;;;;;;7.10;6.50;;;15.00;99.90;;;;;;4985830;28;20205;-86
2022/09/11 00:08:13;;;;;;;7.18;6.47;;;15.00;99.90;;;;;;4985969;28;20681;-86
2022/09/11 00:10:41;;;;;;;7.28;6.57;;;15.10;99.90;;;;;;4984782;28;20182;-86
2022/09/11 00:13:09;;;;;;;6.35;5.60;;;15.10;99.90;;;;;;4984951;28;20192;-86
2022/09/11 00:15:39;;;;;;;6.45;5.85;;;15.10;99.90;;;;;;4984756;28;20260;-86
2022/09/11 00:18:06;;;;;;;5.75;4.82;;;15.10;99.90;;;;;;4985362;28;20191;-86
2022/09/11 00:20:33;;;;;;;5.40;4.90;;;15.20;99.90;;;;;;4986269;28;21032;-87
2022/09/11 00:23:02;;;;;;;5.93;5.38;;;15.10;99.90;;;;;;4986082;28;20239;-87
2022/09/11 00:25:28;;;;;;;5.20;4.70;;;15.20;99.90;;;;;;4986989;28;20215;-87
2022/09/11 00:27:54;;;;;;;5.00;4.55;;;15.10;99.90;;;;;;4994205;28;20199;-86
2022/09/11 00:30:21;;;;;;;5.03;4.63;;;15.10;99.90;;;;;;4985506;28;20208;-86
2022/09/11 00:32:48;;;;;;;4.97;4.57;;;15.10;99.90;;;;;;4988558;28;20218;-86
2022/09/11 00:35:14;;;;;;;5.40;4.90;;;15.00;99.90;;;;;;4989071;28;20206;-86
2022/09/11 00:37:40;;;;;;;4.65;4.25;;;15.10;99.90;;;;;;4989200;28;20180;-86
2022/09/11 00:40:06;;;;;;;5.68;4.45;;;15.00;99.90;;;;;;4989083;28;20188;-85
2022/09/11 00:42:31;;;;;;;4.70;4.30;;;15.10;99.90;;;;;;4988439;28;20208;-86
2022/09/11 00:44:59;;;;;;;4.70;4.20;;;15.10;99.90;;;;;;4988389;28;20239;-86
2022/09/11 00:47:25;;;;;;;4.55;4.25;;;15.10;99.90;;;;;;4989016;28;20658;-86
2022/09/11 00:49:55;;;;;;;4.97;4.40;;;15.10;99.90;;;;;;4988940;28;20194;-86
2022/09/11 00:52:27;;;;;;;4.65;4.25;;;15.10;99.90;;;;;;4996711;28;20647;-86
2022/09/11 00:55:11;;;;;;;5.22;4.80;;;15.10;99.90;;;;;;4988507;28;20208;-86
2022/09/11 00:57:58;;;;;;;4.20;3.80;;;15.30;99.90;;;;;;4988961;28;20191;-86
2022/09/11 01:00:24;;;;;;;4.03;3.72;;;15.20;99.90;;;;;;4982991;28;20188;-86
2022/09/11 01:02:52;;;;;;;3.88;3.50;;;15.40;99.90;;;;;;4988139;28;20235;-86
2022/09/11 01:05:18;;;;;;;3.55;3.22;;;15.10;99.90;;;;;;4980186;28;20315;-86
2022/09/11 01:07:46;;;;;;;4.32;3.80;;;15.10;99.90;;;;;;4988388;28;20663;-86
2022/09/11 01:10:12;;;;;;;3.80;3.42;;;15.00;99.90;;;;;;4988486;28;21294;-86
2022/09/11 01:12:59;;;;;;;4.15;3.20;;;15.00;99.90;;;;;;4988533;28;20208;-85
2022/09/11 01:16:11;;;;;;;3.40;3.05;;;15.00;99.90;;;;;;4987726;28;20204;-85
2022/09/11 01:18:57;;;;;;;3.38;3.05;;;15.00;99.90;;;;;;4978158;28;20239;-86
2022/09/11 01:21:44;;;;;;;4.50;3.40;;;15.00;99.90;;;;;;4989171;28;20674;-86
2022/09/11 01:24:39;;;;;;;3.55;3.20;;;15.00;99.90;;;;;;4988047;28;20184;-86
2022/09/11 01:27:43;;;;;;;4.15;3.40;;;15.00;99.90;;;;;;4988077;28;20291;-86
2022/09/11 01:30:15;;;;;;;3.13;2.88;;;14.90;99.90;;;;;;4996725;28;20725;-86
2022/09/11 01:32:50;;;;;;;3.85;3.00;;;14.90;99.90;;;;;;4987382;28;20176;-86
2022/09/11 01:35:37;;;;;;;3.20;3.00;;;15.00;99.90;;;;;;4988913;28;20199;-86
2022/09/11 01:38:05;;;;;;;3.67;3.38;;;14.90;99.90;;;;;;4989868;28;20180;-86
2022/09/11 01:40:54;;;;;;;3.38;3.10;;;14.80;99.90;;;;;;4987916;28;20287;-86
2022/09/11 01:43:30;;;;;;;3.38;3.08;;;14.80;99.90;;;;;;4987163;28;20290;-86
2022/09/11 01:45:58;;;;;;;3.53;3.22;;;14.90;99.90;;;;;;4979533;28;20200;-86
2022/09/11 01:48:31;;;;;;;3.55;3.25;;;14.70;99.90;;;;;;4987976;28;20180;-86
2022/09/11 01:50:58;;;;;;;4.53;4.13;;;14.60;99.90;;;;;;4988711;28;20279;-85
2022/09/11 01:53:32;;;;;;;3.72;3.45;;;14.50;99.90;;;;;;4987749;28;20199;-86
2022/09/11 01:56:02;;;;;;;4.97;4.22;;;14.50;99.90;;;;;;4987363;28;20822;-85
2022/09/11 01:58:31;;;;;;;6.47;4.07;;;14.50;99.90;;;;;;4987966;28;20275;-86
2022/09/11 02:01:18;;;;;;;5.30;4.57;;;14.40;99.90;;;;;;4987212;28;20184;-86
2022/09/11 02:04:16;;;;;;;5.65;5.07;;;14.40;99.90;;;;;;4987677;28;20200;-86
2022/09/11 02:06:48;;;;;;;5.60;4.53;;;14.40;99.90;;;;;;4987043;28;20187;-86
2022/09/11 02:09:19;;;;;;;5.82;4.97;;;14.40;99.90;;;;;;4989198;28;20183;-86
2022/09/11 02:11:50;;;;;;;5.25;4.75;;;14.30;99.90;;;;;;4987050;28;20288;-86
2022/09/11 02:14:28;;;;;;;5.90;5.30;;;14.30;99.90;;;;;;4987338;28;20554;-86
2022/09/11 02:17:13;;;;;;;6.18;5.38;;;14.30;99.90;;;;;;5003092;28;20200;-86
2022/09/11 02:19:40;;;;;;;8.57;6.07;;;14.20;99.90;;;;;;4988787;28;20180;-86
2022/09/11 02:22:06;;;;;;;6.13;5.60;;;14.20;99.90;;;;;;4987254;28;20600;-86
2022/09/11 02:24:32;;;;;;;6.38;5.88;;;14.10;99.90;;;;;;5003415;28;20200;-85
2022/09/11 02:27:02;;;;;;;7.10;6.45;;;14.10;99.90;;;;;;4986734;28;20204;-86
2022/09/11 02:29:28;;;;;;;8.02;7.22;;;14.00;99.90;;;;;;4988639;28;20227;-86
2022/09/11 02:31:54;;;;;;;7.82;7.18;;;13.90;99.90;;;;;;4986937;28;20184;-86
2022/09/11 02:34:26;;;;;;;8.75;7.85;;;14.00;99.90;;;;;;4988178;28;20201;-86
2022/09/11 02:36:55;;;;;;;8.50;7.80;;;14.00;99.90;;;;;;4986638;28;20234;-85
2022/09/11 02:39:33;;;;;;;8.23;7.53;;;13.90;99.90;;;;;;4979931;28;20227;-85
2022/09/11 02:42:14;;;;;;;9.15;8.23;;;13.90;99.90;;;;;;4986910;28;20607;-86
2022/09/11 02:45:02;;;;;;;8.38;7.72;;;13.80;99.90;;;;;;4986538;28;20204;-86
2022/09/11 02:48:03;;;;;;;9.00;7.97;;;13.80;99.90;;;;;;4994469;28;20195;-86
2022/09/11 02:50:52;;;;;;;9.13;8.23;;;13.80;99.90;;;;;;4986426;28;20653;-86
2022/09/11 02:53:36;;;;;;;8.90;8.18;;;13.80;99.90;;;;;;4986313;28;20267;-86
2022/09/11 02:56:17;;;;;;;9.80;8.80;;;13.80;99.90;;;;;;4986358;28;20212;-86
2022/09/11 02:58:47;;;;;;;9.82;8.98;;;13.80;99.90;;;;;;4995059;28;20270;-86
2022/09/11 03:01:13;;;;;;;10.80;9.85;;;13.80;99.90;;;;;;4985969;28;20211;-86
2022/09/11 03:03:43;;;;;;;10.27;9.38;;;13.90;99.90;;;;;;4986670;28;20679;-86
2022/09/11 03:06:29;;;;;;;10.38;9.38;;;13.90;99.90;;;;;;4987376;28;20235;-87
2022/09/11 03:08:55;;;;;;;11.60;10.40;;;14.10;99.90;;;;;;4987491;28;20199;-86
2022/09/11 03:11:20;;;;;;;10.20;9.30;;;14.20;99.90;;;;;;4985841;28;20180;-86
2022/09/11 03:13:46;;;;;;;10.98;10.05;;;14.20;99.90;;;;;;4986599;28;21235;-86
2022/09/11 03:16:12;;;;;;;11.70;10.70;;;14.20;99.90;;;;;;4985593;28;20227;-86
2022/09/11 03:18:38;;;;;;;10.95;10.05;;;14.30;99.90;;;;;;4988819;28;20180;-86
2022/09/11 03:21:04;;;;;;;11.20;10.20;;;14.60;99.90;;;;;;4986226;28;20192;-86
2022/09/11 03:23:30;;;;;;;12.13;11.02;;;14.40;99.90;;;;;;4987202;28;20304;-85
2022/09/11 03:25:57;;;;;;;13.57;11.55;;;14.40;99.90;;;;;;4985621;28;20742;-86
2022/09/11 03:28:23;;;;;;;13.23;11.93;;;14.50;99.90;;;;;;4986054;28;20639;-86
2022/09/11 03:30:49;;;;;;;14.48;13.00;;;14.50;99.90;;;;;;4985353;28;20187;-86
2022/09/11 03:33:18;;;;;;;14.88;13.27;;;14.50;99.90;;;;;;4986129;28;20180;-86
2022/09/11 03:35:44;;;;;;;16.55;14.68;;;14.60;99.90;;;;;;4985596;28;20216;-85
2022/09/11 03:38:10;;;;;;;18.00;15.50;;;14.70;99.90;;;;;;4986158;28;20227;-86
2022/09/11 03:40:37;;;;;;;18.27;16.42;;;14.80;99.90;;;;;;4985427;28;20184;-86
2022/09/11 03:43:02;;;;;;;20.40;17.70;;;14.80;99.90;;;;;;4987040;28;20300;-85
2022/09/11 03:45:28;;;;;;;18.98;16.98;;;14.70;99.90;;;;;;4986434;28;20831;-86
2022/09/11 03:47:54;;;;;;;19.30;17.40;;;14.70;99.90;;;;;;4985877;28;20184;-85
2022/09/11 03:50:19;;;;;;;20.27;18.33;;;14.70;99.90;;;;;;4985430;28;21189;-86
2022/09/11 03:52:45;;;;;;;21.98;19.65;;;14.70;99.90;;;;;;4985004;28;20180;-86
2022/09/11 03:55:11;;;;;;;21.80;19.52;;;14.70;99.90;;;;;;4985112;28;20211;-86
2022/09/11 03:57:37;;;;;;;25.20;22.08;;;15.00;99.90;;;;;;4985408;28;20184;-86
2022/09/11 04:00:05;;;;;;;24.08;21.42;;;14.70;99.90;;;;;;4986802;28;20900;-86
2022/09/11 04:02:31;;;;;;;29.55;24.02;;;14.70;99.90;;;;;;4985210;28;20204;-85
2022/09/11 04:04:57;;;;;;;31.90;26.20;;;14.80;99.90;;;;;;4976221;28;20631;-86
2022/09/11 04:07:23;;;;;;;32.75;27.85;;;14.70;99.90;;;;;;4985496;28;20184;-85
2022/09/11 04:09:48;;;;;;;35.75;27.70;;;14.70;99.90;;;;;;4985506;28;20184;-86
2022/09/11 04:12:15;;;;;;;34.40;26.92;;;14.60;99.90;;;;;;4985269;28;20239;-86
2022/09/11 04:14:40;;;;;;;29.17;25.02;;;14.60;99.90;;;;;;4986541;28;21109;-85
2022/09/11 04:17:07;;;;;;;25.90;23.13;;;14.60;99.90;;;;;;4984824;28;20184;-85
2022/09/11 04:19:33;;;;;;;22.45;20.23;;;14.60;99.90;;;;;;4986468;28;20247;-86
2022/09/11 04:21:59;;;;;;;22.23;20.08;;;14.50;99.90;;;;;;4985918;28;20216;-85
2022/09/11 04:24:24;;;;;;;22.50;19.67;;;14.60;99.90;;;;;;4985129;28;20246;-86
2022/09/11 04:26:50;;;;;;;20.70;18.60;;;14.50;99.90;;;;;;4986215;28;20204;-86
2022/09/11 04:29:21;;;;;;;19.55;17.45;;;14.30;99.90;;;;;;4985288;28;20188;-87
2022/09/11 04:31:47;;;;;;;19.20;17.30;;;14.30;99.90;;;;;;4984878;28;20183;-85
2022/09/11 04:34:12;;;;;;;18.95;16.67;;;14.50;99.90;;;;;;4985383;28;20184;-84
2022/09/11 04:36:38;;;;;;;18.15;16.45;;;14.30;99.90;;;;;;4986080;28;20263;-86
2022/09/11 04:39:04;;;;;;;16.20;14.60;;;14.30;99.90;;;;;;4985357;28;20658;-85
2022/09/11 04:41:29;;;;;;;15.95;14.45;;;14.30;99.90;;;;;;4986237;28;20184;-85
2022/09/11 04:43:57;;;;;;;14.85;13.35;;;14.30;99.90;;;;;;4985015;28;20203;-86
2022/09/11 04:46:23;;;;;;;12.98;11.77;;;14.30;99.90;;;;;;4984468;28;20184;-85
2022/09/11 04:48:52;;;;;;;11.77;10.77;;;14.40;99.90;;;;;;4985293;28;20279;-86
2022/09/11 04:51:29;;;;;;;11.63;10.52;;;14.30;99.90;;;;;;4986083;28;20263;-86
2022/09/11 04:53:58;;;;;;;11.10;10.10;;;14.20;99.90;;;;;;5001270;28;20188;-85
2022/09/11 04:56:28;;;;;;;11.48;10.38;;;14.10;99.90;;;;;;4985848;28;20176;-86
2022/09/11 04:58:56;;;;;;;11.82;10.73;;;14.00;99.90;;;;;;4985124;28;20250;-84
2022/09/11 05:01:24;;;;;;;11.95;10.85;;;14.00;99.90;;;;;;4984435;28;20245;-85
2022/09/11 05:03:51;;;;;;;13.30;11.98;;;14.00;99.90;;;;;;4992742;28;20209;-85
2022/09/11 05:06:17;;;;;;;13.13;11.82;;;14.00;99.90;;;;;;4985365;28;20236;-86
2022/09/11 05:08:43;;;;;;;14.52;13.00;;;13.90;99.90;;;;;;4984720;28;20188;-85
2022/09/11 05:11:15;;;;;;;13.55;12.15;;;14.00;99.90;;;;;;4986029;28;20184;-86
2022/09/11 05:13:42;;;;;;;15.30;13.77;;;14.00;99.90;;;;;;4993820;28;20303;-86
2022/09/11 05:16:11;;;;;;;15.60;14.00;;;14.10;99.90;;;;;;4985561;28;20239;-86
2022/09/11 05:18:41;;;;;;;15.00;13.48;;;13.90;99.90;;;;;;4988337;28;21060;-85
2022/09/11 05:21:16;;;;;;;16.35;14.65;;;14.10;99.90;;;;;;4988054;28;20195;-86
2022/09/11 05:23:46;;;;;;;16.20;14.20;;;14.30;99.90;;;;;;4987904;28;20200;-86
2022/09/11 05:26:17;;;;;;;16.48;14.25;;;14.20;99.90;;;;;;4987569;28;20279;-86
2022/09/11 05:28:43;;;;;;;16.65;14.25;;;14.20;99.90;;;;;;4988007;28;20189;-86
2022/09/11 05:31:15;;;;;;;15.65;13.82;;;14.20;99.90;;;;;;4989248;28;20197;-85
2022/09/11 05:33:42;;;;;;;16.27;14.68;;;14.10;99.90;;;;;;4988240;28;20187;-86
2022/09/11 05:36:09;;;;;;;16.75;14.20;;;14.20;99.90;;;;;;5003357;28;20211;-86
2022/09/11 05:38:38;;;;;;;15.93;13.77;;;14.20;99.90;;;;;;4996138;28;21100;-86
2022/09/11 05:41:10;;;;;;;15.85;14.10;;;14.30;99.90;;;;;;4987336;28;20384;-85
2022/09/11 05:43:37;;;;;;;16.48;13.88;;;14.30;99.90;;;;;;4987510;28;20227;-85
2022/09/11 05:46:05;;;;;;;16.85;14.55;;;14.30;99.90;;;;;;4987129;28;20236;-85
2022/09/11 05:48:32;;;;;;;16.88;14.93;;;14.30;99.90;;;;;;4988063;28;20173;-86
2022/09/11 05:51:00;;;;;;;17.70;14.98;;;14.60;99.90;;;;;;4986963;28;20184;-86
2022/09/11 05:53:27;;;;;;;16.15;14.35;;;14.40;99.90;;;;;;4987419;28;20219;-86
2022/09/11 05:55:53;;;;;;;15.93;14.20;;;14.40;99.90;;;;;;4987522;28;20238;-85
2022/09/11 05:58:19;;;;;;;16.08;13.82;;;14.50;99.90;;;;;;4987727;28;20858;-86
2022/09/11 06:00:46;;;;;;;16.77;14.98;;;14.50;99.90;;;;;;4987022;28;20216;-85
2022/09/11 06:03:12;;;;;;;16.05;14.35;;;14.50;99.90;;;;;;4987161;28;20226;-86
2022/09/11 06:05:39;;;;;;;16.73;14.52;;;14.50;99.90;;;;;;4988305;28;20199;-86
2022/09/11 06:08:05;;;;;;;16.80;14.18;;;14.40;99.90;;;;;;5003475;28;20180;-87
2022/09/11 06:10:31;;;;;;;15.45;13.45;;;14.50;99.90;;;;;;4987142;28;20180;-88
2022/09/11 06:12:56;;;;;;;16.25;13.18;;;14.60;99.90;;;;;;4988455;28;20303;-87
2022/09/11 06:15:24;;;;;;;16.45;13.45;;;14.60;99.90;;;;;;4986781;28;20270;-85
2022/09/11 06:17:49;;;;;;;20.40;13.38;;;14.60;99.90;;;;;;4986912;28;20276;-87
2022/09/11 06:20:15;;;;;;;16.88;12.82;;;14.60;99.90;;;;;;4986736;28;20263;-85
2022/09/11 06:22:41;;;;;;;17.48;12.90;;;14.70;99.90;;;;;;4986816;28;20227;-86
2022/09/11 06:25:07;;;;;;;16.42;13.50;;;14.70;99.90;;;;;;4986581;28;20204;-85
2022/09/11 06:27:33;;;;;;;16.98;13.10;;;14.70;99.90;;;;;;4987830;28;20239;-86
2022/09/11 06:29:59;;;;;;;16.30;13.23;;;14.60;99.90;;;;;;4986743;28;20188;-85
2022/09/11 06:32:24;;;;;;;16.45;13.43;;;14.60;99.90;;;;;;4986803;28;20211;-87
2022/09/11 06:34:50;;;;;;;17.20;12.35;;;14.60;99.90;;;;;;4986546;28;20619;-87
2022/09/11 06:37:15;;;;;;;16.00;11.68;;;14.60;99.90;;;;;;4986933;28;20271;-86
2022/09/11 06:39:41;;;;;;;15.23;11.23;;;14.60;99.90;;;;;;4986582;28;20239;-86
2022/09/11 06:42:07;;;;;;;18.27;12.93;;;14.60;99.90;;;;;;4986735;28;20320;-86
2022/09/11 06:44:32;;;;;;;18.77;12.43;;;14.60;99.90;;;;;;4986164;28;20208;-86
2022/09/11 06:46:58;;;;;;;18.25;12.82;;;14.60;99.90;;;;;;4986727;28;20550;-86
2022/09/11 06:49:24;;;;;;;14.80;11.50;;;14.70;99.90;;;;;;4986852;28;20272;-86
2022/09/11 06:51:51;;;;;;;15.88;11.82;;;14.70;99.90;;;;;;4988896;28;20188;-87
2022/09/11 06:54:16;;;;;;;15.27;11.23;;;14.90;99.90;;;;;;4986699;28;20204;-85
2022/09/11 06:56:44;;;;;;;16.60;12.05;;;14.80;99.90;;;;;;4985516;28;20192;-85
2022/09/11 06:59:09;;;;;;;16.15;11.80;;;14.80;99.90;;;;;;4985619;28;21276;-85
2022/09/11 07:01:35;;;;;;;13.77;10.82;;;14.80;99.90;;;;;;4985655;28;20180;-84
2022/09/11 07:04:01;;;;;;;16.17;11.38;;;14.90;99.90;;;;;;4985907;28;20204;-85
2022/09/11 07:06:29;;;;;;;14.82;11.52;;;14.90;99.90;;;;;;4985323;28;20208;-85
2022/09/11 07:09:01;;;;;;;16.10;11.55;;;14.90;99.90;;;;;;4984979;28;20267;-84
2022/09/11 07:11:33;;;;;;;15.70;11.35;;;14.80;99.90;;;;;;4981862;28;20247;-84
2022/09/11 07:14:00;;;;;;;17.20;11.52;;;14.90;99.90;;;;;;4984928;28;20242;-84
2022/09/11 07:16:25;;;;;;;14.25;11.23;;;14.80;99.90;;;;;;4981160;28;20243;-84
2022/09/11 07:18:51;;;;;;;14.32;11.40;;;14.90;99.90;;;;;;4984261;28;20199;-85
2022/09/11 07:21:20;;;;;;;14.32;10.48;;;15.00;99.90;;;;;;4985760;28;20187;-84
2022/09/11 07:23:51;;;;;;;15.18;11.20;;;15.00;99.90;;;;;;5005227;22;20260;-83
2022/09/11 07:26:17;;;;;;;17.58;11.68;;;15.00;99.90;;;;;;5020530;28;21136;-83
2022/09/11 07:28:43;;;;;;;12.35;10.18;;;15.00;99.90;;;;;;5026548;28;20186;-83
2022/09/11 07:31:17;;;;;;;14.68;10.60;;;15.20;99.90;;;;;;5023360;28;20210;-82
2022/09/11 07:33:45;;;;;;;12.23;10.05;;;15.30;99.90;;;;;;5027545;28;20265;-82
2022/09/11 07:36:25;;;;;;;12.57;10.52;;;15.30;99.90;;;;;;5025193;28;20261;-81
2022/09/11 07:38:53;;;;;;;13.32;10.15;;;15.40;99.90;;;;;;5020749;28;20197;-83
2022/09/11 07:41:21;;;;;;;11.07;9.82;;;15.50;99.90;;;;;;5027124;28;20183;-84
2022/09/11 07:43:52;;;;;;;12.13;9.77;;;15.50;99.90;;;;;;5028509;28;20568;-83
2022/09/11 07:46:17;;;;;;;13.00;9.82;;;15.60;99.90;;;;;;5025482;28;20217;-83
2022/09/11 07:48:43;;;;;;;12.10;9.00;;;15.80;99.90;;;;;;5026637;28;20269;-82
2022/09/11 07:51:11;;;;;;;11.63;9.55;;;15.90;99.90;;;;;;5026356;28;20256;-81
2022/09/11 07:53:39;;;;;;;10.30;9.13;;;15.80;99.90;;;;;;5027377;28;20183;-83
2022/09/11 07:56:10;;;;;;;13.68;10.05;;;15.80;99.90;;;;;;5028050;28;20776;-84
2022/09/11 07:58:38;;;;;;;14.82;10.80;;;15.90;99.90;;;;;;5043377;28;20188;-83
2022/09/11 08:01:05;;;;;;;11.80;10.32;;;15.90;99.90;;;;;;5025425;28;20183;-84
2022/09/11 08:03:33;;;;;;;12.48;10.15;;;15.70;99.90;;;;;;5026343;28;20202;-83
2022/09/11 08:06:05;;;;;;;12.23;10.13;;;15.80;99.90;;;;;;5025203;28;20268;-83
2022/09/11 08:08:31;;;;;;;11.25;9.27;;;15.70;99.90;;;;;;5041784;28;20669;-82
2022/09/11 08:11:02;;;;;;;13.98;9.23;;;15.40;99.90;;;;;;5024497;28;20220;-83
2022/09/11 08:13:28;;;;;;;12.93;9.48;;;15.50;99.90;;;;;;5025093;28;20183;-82
2022/09/11 08:15:55;;;;;;;11.68;9.77;;;15.50;99.90;;;;;;5025545;28;20213;-83
2022/09/11 08:18:21;;;;;;;12.07;9.68;;;15.50;99.90;;;;;;5028181;28;20183;-82
2022/09/11 08:20:47;;;;;;;12.90;9.93;;;15.50;99.90;;;;;;5026763;28;20595;-85
2022/09/11 08:23:14;;;;;;;11.90;9.73;;;15.70;99.90;;;;;;5020617;28;20209;-82
2022/09/11 08:25:40;;;;;;;11.80;9.60;;;15.50;99.90;;;;;;5019955;28;20222;-83
2022/09/11 08:28:06;;;;;;;12.57;9.80;;;15.50;99.90;;;;;;5022655;28;20218;-82
2022/09/11 08:30:33;;;;;;;11.75;10.02;;;15.50;99.90;;;;;;5022993;28;20179;-83
2022/09/11 08:33:00;;;;;;;13.02;9.45;;;15.50;99.90;;;;;;5020859;28;20660;-83
2022/09/11 08:35:25;;;;;;;13.35;10.25;;;15.40;99.90;;;;;;5020959;28;20202;-82
2022/09/11 08:37:53;;;;;;;13.20;10.30;;;15.60;99.90;;;;;;5021058;28;20194;-80
2022/09/11 08:40:19;;;;;;;12.95;10.32;;;15.60;99.90;;;;;;5021289;28;20183;-83
2022/09/11 08:42:46;;;;;;;13.65;10.75;;;15.60;99.90;;;;;;5021074;28;20215;-82
2022/09/11 08:45:18;;;;;;;14.05;10.93;;;15.60;99.90;;;;;;5019776;28;20202;-82
2022/09/11 08:47:50;;;;;;;12.98;10.68;;;15.50;99.90;;;;;;5022360;28;20179;-82
2022/09/11 08:50:22;;;;;;;14.27;11.75;;;15.60;99.90;;;;;;5021424;28;20679;-82
2022/09/11 08:52:48;;;;;;;15.32;12.73;;;15.70;99.90;;;;;;5025652;28;20187;-83
2022/09/11 08:55:23;;;;;;;14.38;12.38;;;15.70;99.90;;;;;;5025871;28;20206;-82
2022/09/11 08:58:11;;;;;;;19.45;14.93;;;15.80;99.90;;;;;;5025775;28;20660;-81
2022/09/11 09:00:49;;;;;;;18.35;14.02;;;15.90;99.90;;;;;;5024392;28;20694;-82
2022/09/11 09:03:34;;;;;;;18.35;14.98;;;16.00;99.90;;;;;;5026955;28;20210;-83
2022/09/11 09:06:30;;;;;;;21.73;16.83;;;16.10;99.90;;;;;;5024765;28;20234;-82
2022/09/11 09:08:59;;;;;;;19.63;16.17;;;16.10;99.90;;;;;;5026631;28;20194;-82
2022/09/11 09:11:40;;;;;;;19.73;16.40;;;16.00;99.90;;;;;;5026484;28;20202;-82
2022/09/11 09:14:11;;;;;;;22.55;17.67;;;16.00;99.90;;;;;;5026680;28;20191;-83
2022/09/11 09:16:54;;;;;;;20.10;16.15;;;16.00;99.90;;;;;;5027666;28;20715;-82
2022/09/11 09:19:37;;;;;;;22.52;17.13;;;15.90;99.90;;;;;;5027249;28;20179;-84
2022/09/11 09:22:09;;;;;;;22.77;16.35;;;16.00;99.90;;;;;;5028236;28;20219;-82
2022/09/11 09:24:47;;;;;;;20.48;17.05;;;16.10;99.90;;;;;;5027498;28;20314;-82
2022/09/11 09:27:25;;;;;;;20.25;17.52;;;16.00;99.90;;;;;;5026169;28;20186;-83
2022/09/11 09:29:54;;;;;;;20.48;17.50;;;16.00;99.90;;;;;;5026303;28;20185;-82
2022/09/11 09:32:30;;;;;;;20.58;17.05;;;16.10;99.90;;;;;;5024400;28;20186;-83
2022/09/11 09:35:01;;;;;;;23.98;18.23;;;16.30;99.90;;;;;;5023641;28;20225;-82
2022/09/11 09:37:27;;;;;;;23.23;18.15;;;16.50;99.90;;;;;;5027126;28;20183;-84
2022/09/11 09:39:53;;;;;;;22.90;17.58;;;16.60;99.90;;;;;;5028168;28;20202;-81
2022/09/11 09:42:38;;;;;;;20.15;17.13;;;16.80;99.90;;;;;;5025088;28;20693;-83
2022/09/11 09:45:24;;;;;;;22.45;17.98;;;16.80;99.90;;;;;;5026805;28;20207;-83
2022/09/11 09:47:49;;;;;;;19.73;17.42;;;16.90;99.90;;;;;;5027980;28;20645;-84
2022/09/11 09:50:19;;;;;;;22.40;18.08;;;17.00;99.90;;;;;;5026739;28;20183;-83
2022/09/11 09:52:47;;;;;;;20.42;17.80;;;17.20;99.90;;;;;;5029703;28;20194;-82
2022/09/11 09:55:15;;;;;;;20.80;18.60;;;17.00;99.90;;;;;;5026590;28;20458;-82
2022/09/11 09:57:42;;;;;;;20.90;18.42;;;17.10;99.90;;;;;;5027033;28;20366;-81
2022/09/11 10:00:08;;;;;;;22.17;18.23;;;17.10;99.90;;;;;;5026006;28;20201;-79
2022/09/11 10:02:40;;;;;;;21.70;18.08;;;17.30;99.90;;;;;;5024540;28;20477;-82
2022/09/11 10:05:12;;;;;;;23.83;18.63;;;17.50;99.90;;;;;;5024913;28;20199;-84
2022/09/11 10:07:49;;;;;;;23.30;19.08;;;18.00;99.90;;;;;;5025609;28;20210;-83
2022/09/11 10:10:25;;;;;;;22.10;18.85;;;17.90;99.90;;;;;;5026268;28;20262;-81
2022/09/11 10:12:53;;;;;;;21.83;18.75;;;18.10;99.90;;;;;;5024738;28;20208;-81
2022/09/11 10:15:24;;;;;;;22.05;17.98;;;18.10;99.90;;;;;;5023973;28;20211;-82
2022/09/11 10:17:50;;;;;;;21.40;18.23;;;18.20;99.90;;;;;;5023907;28;20289;-81
2022/09/11 10:20:22;;;;;;;21.20;18.08;;;18.40;99.90;;;;;;5024277;28;20183;-83
2022/09/11 10:22:49;;;;;;;19.17;16.10;;;18.50;99.90;;;;;;5026609;28;20233;-80
2022/09/11 10:25:25;;;;;;;19.73;17.08;;;18.60;99.90;;;;;;5027029;28;20277;-81
2022/09/11 10:28:16;;;;;;;18.90;15.73;;;18.70;99.90;;;;;;5024268;28;20182;-81
2022/09/11 10:30:58;;;;;;;19.95;15.77;;;18.60;99.90;;;;;;5026992;28;20175;-82
2022/09/11 10:33:36;;;;;;;18.33;16.42;;;18.60;99.90;;;;;;5025544;28;20190;-82
2022/09/11 10:36:06;;;;;;;18.75;15.73;;;18.60;99.90;;;;;;5025322;28;20264;-81
2022/09/11 10:38:45;;;;;;;15.73;13.98;;;18.70;99.90;;;;;;5025319;28;20649;-80
2022/09/11 10:41:11;;;;;;;15.02;13.52;;;18.90;91.80;;;;;;5025698;28;20543;-81
2022/09/11 10:44:05;;;;;;;14.13;12.60;;;19.00;49.70;;;;;;5023980;28;20213;-79
2022/09/11 10:46:35;;;;;;;13.77;11.90;;;18.80;71.30;;;;;;5024464;28;20183;-83
2022/09/11 10:49:04;;;;;;;14.75;13.25;;;18.70;78.50;;;;;;5025483;28;20225;-83
2022/09/11 10:51:32;;;;;;;13.68;11.85;;;18.80;95.50;;;;;;5024357;28;20194;-81
2022/09/11 10:54:02;;;;;;;12.93;11.50;;;18.90;53.10;;;;;;5024092;28;20573;-82
2022/09/11 10:56:28;;;;;;;12.60;11.30;;;18.70;64.90;;;;;;5024634;28;20185;-83
2022/09/11 10:59:03;;;;;;;12.93;11.23;;;18.90;36.10;;;;;;5024834;28;20197;-82
2022/09/11 11:01:28;;;;;;;13.60;12.27;;;19.00;40.70;;;;;;5023301;28;20186;-81
2022/09/11 11:03:55;;;;;;;13.82;12.38;;;19.40;58.40;;;;;;5023873;28;20206;-83
2022/09/11 11:06:51;;;;;;;13.05;11.75;;;19.50;46.60;;;;;;5025510;28;20207;-84
2022/09/11 11:09:34;;;;;;;14.95;12.23;;;19.50;52.10;;;;;;5024746;28;20201;-85
2022/09/11 11:12:18;;;;;;;14.30;12.73;;;19.50;46.60;;;;;;5023727;28;20209;-86
2022/09/11 11:15:05;;;;;;;14.18;12.68;;;19.80;25.30;;;;;;5027252;28;20207;-86
2022/09/11 11:18:10;;;;;;;11.90;10.70;;;20.00;3.00;;;;;;5025199;28;20206;-84
2022/09/11 11:20:44;;;;;;;12.68;11.48;;;20.00;16.00;;;;;;5023712;28;20695;-84
2022/09/11 11:23:48;;;;;;;11.77;10.77;;;20.50;1.00;;;;;;5022719;28;20237;-83
2022/09/11 11:26:38;;;;;;;12.60;11.30;;;20.70;1.00;;;;;;5025651;28;20206;-83
2022/09/11 11:29:34;;;;;;;13.05;10.85;;;20.60;1.00;;;;;;5021373;28;20175;-83
2022/09/11 11:32:29;;;;;;;11.85;10.65;;;20.60;1.00;;;;;;5023045;28;20186;-84
2022/09/11 11:35:20;;;;;;;12.60;11.30;;;20.40;1.00;;;;;;5008822;28;20221;-82
2022/09/11 11:37:49;;;;;;;12.10;10.40;;;20.00;1.00;;;;;;5023135;28;20548;-82
2022/09/11 11:40:45;;;;;;;11.60;10.40;;;19.90;1.00;;;;;;5021282;28;20237;-82
2022/09/11 11:43:12;;;;;;;10.27;9.07;;;20.00;1.00;;;;;;5024364;28;20600;-82
2022/09/11 11:46:00;;;;;;;9.98;9.05;;;20.10;1.00;;;;;;5028334;28;20862;-81
2022/09/11 11:48:49;;;;;;;9.95;8.90;;;20.20;99.90;;;;;;5028548;28;20527;-81
2022/09/11 11:51:17;;;;;;;10.00;8.82;;;20.20;1.00;;;;;;5030339;28;20637;-80
2022/09/11 11:53:59;;;;;;;10.02;9.02;;;20.40;99.90;;;;;;5034583;28;20186;-82
2022/09/11 11:56:40;;;;;;;10.18;8.80;;;20.30;82.20;;;;;;5036845;28;20229;-82
2022/09/11 11:59:32;;;;;;;8.30;7.50;;;20.20;1.00;;;;;;5035379;28;20209;-81
2022/09/11 12:02:11;;;;;;;9.10;7.63;;;20.40;99.90;;;;;;5033208;28;20198;-81
2022/09/11 12:05:01;;;;;;;8.18;7.38;;;20.60;1.00;;;;;;5033676;28;20202;-80
2022/09/11 12:07:37;;;;;;;7.32;6.63;;;21.10;1.00;;;;;;5026052;28;20274;-81
2022/09/11 12:10:06;;;;;;;6.97;6.28;;;21.30;99.90;;;;;;5028121;28;20265;-81
2022/09/11 12:12:34;;;;;;;6.43;5.82;;;21.30;99.90;;;;;;5033117;28;20190;-81
2022/09/11 12:15:06;;;;;;;6.88;6.18;;;21.50;99.90;;;;;;5033538;28;20429;-81
2022/09/11 12:17:35;;;;;;;9.60;6.90;;;21.20;99.90;;;;;;5051290;28;20190;-81
2022/09/11 12:20:10;;;;;;;9.15;7.80;;;21.20;1.00;;;;;;5032960;28;20191;-81
2022/09/11 12:22:47;;;;;;;8.23;7.15;;;21.10;1.00;;;;;;5029467;28;20232;-82
2022/09/11 12:25:19;;;;;;;7.43;6.72;;;21.10;1.00;;;;;;5027279;28;20309;-83
2022/09/11 12:27:45;;;;;;;8.80;7.90;;;21.10;1.00;;;;;;5028157;28;20660;-83
2022/09/11 12:30:16;;;;;;;7.68;6.97;;;21.00;99.90;;;;;;5029331;28;20201;-81
2022/09/11 12:32:43;;;;;;;9.30;7.45;;;20.80;99.90;;;;;;5029635;28;20194;-83
2022/09/11 12:35:30;;;;;;;6.78;5.63;;;20.60;1.00;;;;;;5027688;28;20207;-83
2022/09/11 12:38:09;;;;;;;6.75;6.13;;;20.60;99.90;;;;;;5026799;28;20210;-83
2022/09/11 12:40:46;;;;;;;5.88;5.38;;;20.60;1.00;;;;;;5023245;28;20202;-83
2022/09/11 12:43:46;;;;;;;6.15;5.55;;;20.20;1.00;;;;;;5028746;28;20198;-82
2022/09/11 12:46:20;;;;;;;6.60;5.75;;;20.30;1.00;;;;;;5004609;28;20218;-83
2022/09/11 12:49:07;;;;;;;6.65;6.05;;;20.40;99.90;;;;;;5024903;28;20186;-83
2022/09/11 12:51:37;;;;;;;6.55;5.85;;;20.40;1.00;;;;;;5025639;28;20211;-83
2022/09/11 12:54:19;;;;;;;8.23;7.43;;;20.30;8.60;;;;;;5027087;28;20187;-81
2022/09/11 12:56:48;;;;;;;8.18;7.38;;;20.20;99.90;;;;;;5027299;28;20217;-83
2022/09/11 12:59:41;;;;;;;8.18;7.38;;;20.10;99.90;;;;;;5026384;28;20187;-80